createdAt,value
2023-04-27T00:01:11.557Z,10.11
2023-04-27T00:03:38.563Z,10.06
2023-04-27T00:06:05.738Z,10.05
2023-04-27T00:08:33.831Z,10.07
2023-04-27T00:11:00.713Z,10.08
2023-04-27T00:13:27.724Z,10.06
2023-04-27T00:15:54.694Z,10.04
2023-04-27T00:18:21.420Z,10.08
2023-04-27T00:20:48.189Z,10.09
2023-04-27T00:23:14.846Z,10.10
2023-04-27T00:25:42.926Z,10.02
2023-04-27T00:28:09.573Z,10.03
2023-04-27T00:30:36.302Z,10.06
2023-04-27T00:33:03.024Z,10.01
2023-04-27T00:35:29.718Z,10.07
2023-04-27T00:37:56.386Z,10.10
2023-04-27T00:40:23.094Z,10.09
2023-04-27T00:42:51.107Z,10.08
2023-04-27T00:45:17.716Z,9.61
2023-04-27T00:47:45.126Z,9.24
2023-04-27T00:50:12.187Z,9.84
2023-04-27T00:52:39.118Z,9.96
2023-04-27T00:55:07.165Z,9.99
2023-04-27T00:57:34.190Z,10.00
2023-04-27T01:00:06.721Z,9.96
2023-04-27T01:02:33.587Z,9.91
2023-04-27T01:05:01.985Z,9.98
2023-04-27T01:07:29.204Z,9.96
2023-04-27T01:09:56.293Z,9.99
2023-04-27T01:12:22.934Z,9.96
2023-04-27T01:14:49.534Z,9.94
2023-04-27T01:17:18.281Z,8.03
2023-04-27T01:19:45.102Z,8.99
2023-04-27T01:22:11.774Z,9.47
2023-04-27T01:24:39.745Z,9.79
2023-04-27T01:27:06.310Z,9.90
2023-04-27T01:29:32.956Z,9.94
2023-04-27T01:31:59.797Z,9.89
2023-04-27T01:34:26.734Z,9.91
2023-04-27T01:36:53.280Z,9.84
2023-04-27T01:39:19.831Z,9.88
2023-04-27T01:41:47.835Z,9.66
2023-04-27T01:44:14.581Z,9.51
2023-04-27T01:46:41.426Z,9.80
2023-04-27T01:49:08.212Z,9.13
2023-04-27T01:51:34.803Z,9.70
2023-04-27T01:54:01.391Z,9.77
2023-04-27T01:56:27.948Z,9.77
2023-04-27T01:58:56.052Z,9.79
2023-04-27T02:01:22.879Z,9.75
2023-04-27T02:03:49.663Z,9.76
2023-04-27T02:06:16.549Z,9.74
2023-04-27T02:08:43.158Z,9.76
2023-04-27T02:11:09.845Z,9.73
2023-04-27T02:13:36.446Z,9.74
2023-04-27T02:16:05.206Z,9.74
2023-04-27T02:18:33.661Z,9.76
2023-04-27T02:21:00.673Z,9.76
2023-04-27T02:23:27.461Z,9.83
2023-04-27T02:25:54.129Z,9.79
2023-04-27T02:28:20.717Z,9.72
2023-04-27T02:30:47.790Z,9.71
2023-04-27T02:33:16.005Z,9.69
2023-04-27T02:35:42.697Z,9.71
2023-04-27T02:38:10.277Z,9.67
2023-04-27T02:40:36.851Z,9.71
2023-04-27T02:43:03.881Z,9.69
2023-04-27T02:45:30.786Z,9.76
2023-04-27T02:47:57.366Z,9.75
2023-04-27T02:50:25.413Z,9.36
2023-04-27T02:52:52.025Z,9.18
2023-04-27T02:55:21.419Z,8.85
2023-04-27T02:57:48.108Z,9.43
2023-04-27T03:00:15.489Z,9.54
2023-04-27T03:02:42.401Z,9.59
2023-04-27T03:05:09.370Z,9.60
2023-04-27T03:07:37.372Z,9.62
2023-04-27T03:10:04.628Z,9.26
2023-04-27T03:12:31.222Z,9.47
2023-04-27T03:14:57.826Z,9.58
2023-04-27T03:17:24.423Z,9.59
2023-04-27T03:19:51.070Z,9.58
2023-04-27T03:22:17.688Z,9.62
2023-04-27T03:24:45.709Z,9.50
2023-04-27T03:27:12.383Z,9.53
2023-04-27T03:29:39.005Z,9.56
2023-04-27T03:32:06.412Z,9.58
2023-04-27T03:34:33.331Z,9.59
2023-04-27T03:36:59.916Z,9.65
2023-04-27T03:39:27.590Z,9.59
2023-04-27T03:41:55.507Z,9.10
2023-04-27T03:44:22.126Z,9.36
2023-04-27T03:46:48.695Z,9.49
2023-04-27T03:49:15.886Z,9.14
2023-04-27T03:51:42.841Z,8.44
2023-04-27T03:54:10.055Z,9.15
2023-04-27T03:56:37.072Z,8.88
2023-04-27T03:59:05.276Z,8.82
2023-04-27T04:01:32.014Z,9.27
2023-04-27T04:03:58.812Z,9.36
2023-04-27T04:06:26.113Z,8.26
2023-04-27T04:08:52.706Z,8.85
2023-04-27T04:11:19.327Z,9.13
2023-04-27T04:13:46.121Z,9.33
2023-04-27T04:16:14.163Z,9.37
2023-04-27T04:18:40.956Z,9.42
2023-04-27T04:21:09.529Z,9.47
2023-04-27T04:23:36.091Z,9.48
2023-04-27T04:26:02.713Z,9.45
2023-04-27T04:28:29.286Z,9.41
2023-04-27T04:30:56.746Z,9.43
2023-04-27T04:33:26.164Z,9.48
2023-04-27T04:35:53.544Z,9.50
2023-04-27T04:38:20.144Z,9.44
2023-04-27T04:40:46.874Z,9.46
2023-04-27T04:43:13.696Z,9.47
2023-04-27T04:45:40.522Z,9.40
2023-04-27T04:48:07.167Z,9.01
2023-04-27T04:50:35.172Z,9.04
2023-04-27T04:53:02.372Z,7.74
2023-04-27T04:55:28.987Z,8.56
2023-04-27T04:57:55.561Z,8.91
2023-04-27T05:00:22.487Z,8.66
2023-04-27T05:02:49.425Z,9.08
2023-04-27T05:05:16.698Z,9.00
2023-04-27T05:07:44.848Z,9.26
2023-04-27T05:10:11.694Z,8.40
2023-04-27T05:12:38.711Z,8.65
2023-04-27T05:15:06.337Z,7.93
2023-04-27T05:17:32.989Z,8.10
2023-04-27T05:19:59.688Z,8.94
2023-04-27T05:22:26.342Z,9.21
2023-04-27T05:24:54.354Z,9.17
2023-04-27T05:27:20.943Z,9.26
2023-04-27T05:29:47.508Z,9.28
2023-04-27T05:32:14.084Z,9.29
2023-04-27T05:34:41.124Z,9.32
2023-04-27T05:37:07.789Z,9.29
2023-04-27T05:39:34.527Z,9.31
2023-04-27T05:42:02.977Z,9.27
2023-04-27T05:44:29.645Z,9.29
2023-04-27T05:46:56.431Z,9.17
2023-04-27T05:49:23.281Z,9.28
2023-04-27T05:51:49.974Z,9.31
2023-04-27T05:54:16.639Z,9.28
2023-04-27T05:56:43.348Z,9.28
2023-04-27T05:59:11.688Z,9.29
2023-04-27T06:01:38.916Z,9.27
2023-04-27T06:04:05.674Z,9.30
2023-04-27T06:06:33.258Z,9.33
2023-04-27T06:08:59.896Z,9.39
2023-04-27T06:11:26.868Z,9.20
2023-04-27T06:13:53.478Z,9.31
2023-04-27T06:16:21.532Z,9.31
2023-04-27T06:18:49.984Z,9.38
2023-04-27T06:21:16.644Z,9.32
2023-04-27T06:23:43.208Z,9.27
2023-04-27T06:26:09.877Z,9.27
2023-04-27T06:28:36.516Z,9.33
2023-04-27T06:31:03.404Z,9.35
2023-04-27T06:33:31.368Z,9.29
2023-04-27T06:35:58.484Z,9.32
2023-04-27T06:38:25.180Z,9.27
2023-04-27T06:40:52.447Z,9.28
2023-04-27T06:43:19.276Z,9.28
2023-04-27T06:45:46.105Z,9.28
2023-04-27T06:48:12.807Z,9.27
2023-04-27T06:50:40.848Z,9.30
2023-04-27T06:53:08.204Z,9.32
2023-04-27T06:55:34.847Z,9.28
2023-04-27T06:58:03.533Z,9.32
2023-04-27T07:00:31.275Z,9.38
2023-04-27T07:02:58.137Z,9.37
2023-04-27T07:05:24.777Z,9.35
2023-04-27T07:07:52.928Z,9.37
2023-04-27T07:10:19.947Z,9.32
2023-04-27T07:12:46.684Z,9.44
2023-04-27T07:15:13.389Z,9.35
2023-04-27T07:17:40.027Z,9.32
2023-04-27T07:20:08.553Z,9.29
2023-04-27T07:22:35.293Z,9.31
2023-04-27T07:25:04.609Z,9.34
2023-04-27T07:27:31.915Z,9.34
2023-04-27T07:29:58.873Z,9.35
2023-04-27T07:32:25.595Z,9.40
2023-04-27T07:34:54.369Z,9.36
2023-04-27T07:37:21.419Z,9.52
2023-04-27T07:39:48.841Z,9.35
2023-04-27T07:42:16.818Z,9.36
2023-04-27T07:44:43.480Z,9.40
2023-04-27T07:47:10.657Z,9.43
2023-04-27T07:49:38.278Z,9.44
2023-04-27T07:52:05.515Z,9.46
2023-04-27T07:54:32.173Z,9.30
2023-04-27T07:56:58.774Z,9.33
2023-04-27T07:59:28.950Z,9.25
2023-04-27T08:02:04.030Z,9.36
2023-04-27T08:04:37.902Z,9.44
2023-04-27T08:07:05.267Z,9.30
2023-04-27T08:09:32.509Z,9.33
2023-04-27T08:11:59.120Z,9.34
2023-04-27T08:14:27.067Z,9.46
2023-04-27T08:16:53.700Z,9.44
2023-04-27T08:19:20.890Z,9.49
2023-04-27T08:21:47.456Z,9.38
2023-04-27T08:24:14.050Z,9.51
2023-04-27T08:26:41.136Z,9.56
2023-04-27T08:29:19.468Z,9.66
2023-04-27T08:31:52.958Z,9.80
2023-04-27T08:34:20.962Z,9.70
2023-04-27T08:36:47.532Z,9.51
2023-04-27T08:39:14.309Z,9.62
2023-04-27T08:41:43.723Z,9.79
2023-04-27T08:44:10.481Z,9.64
2023-04-27T08:46:38.327Z,9.90
2023-04-27T08:49:07.589Z,9.67
2023-04-27T08:51:34.709Z,9.77
2023-04-27T08:54:01.451Z,9.90
2023-04-27T08:56:29.671Z,9.90
2023-04-27T08:58:57.640Z,9.51
2023-04-27T09:01:26.132Z,9.54
2023-04-27T09:03:56.899Z,9.59
2023-04-27T09:06:31.872Z,9.51
2023-04-27T09:08:59.308Z,9.53
2023-04-27T09:11:31.315Z,9.52
2023-04-27T09:13:59.845Z,10.02
2023-04-27T09:16:29.290Z,10.38
2023-04-27T09:18:57.144Z,9.87
2023-04-27T09:21:24.725Z,10.36
2023-04-27T09:23:53.098Z,10.46
2023-04-27T09:26:21.886Z,10.45
2023-04-27T09:28:49.950Z,10.38
2023-04-27T09:31:17.402Z,9.93
2023-04-27T09:33:45.787Z,9.69
2023-04-27T09:36:12.431Z,10.31
2023-04-27T09:38:39.425Z,10.65
2023-04-27T09:43:44.418Z,9.83
2023-04-27T09:46:12.341Z,9.90
2023-04-27T09:48:39.642Z,10.27
2023-04-27T09:51:06.902Z,10.60
2023-04-27T09:53:37.111Z,10.77
2023-04-27T09:56:16.353Z,10.59
2023-04-27T09:59:01.608Z,10.39
2023-04-27T10:01:37.573Z,10.17
2023-04-27T10:04:20.631Z,10.28
2023-04-27T10:07:03.638Z,10.94
2023-04-27T10:09:39.954Z,10.55
2023-04-27T10:12:18.165Z,10.25
2023-04-27T10:14:56.740Z,10.67
2023-04-27T10:17:31.240Z,10.81
2023-04-27T10:19:59.617Z,11.47
2023-04-27T10:22:39.179Z,11.32
2023-04-27T10:25:24.027Z,11.25
2023-04-27T10:27:52.576Z,10.42
2023-04-27T10:32:57.330Z,10.41
2023-04-27T10:35:33.508Z,10.34
2023-04-27T10:38:06.943Z,10.64
2023-04-27T10:40:35.056Z,10.35
2023-04-27T10:43:09.268Z,10.25
2023-04-27T10:45:35.914Z,10.10
2023-04-27T10:48:05.231Z,10.87
2023-04-27T10:50:32.049Z,11.25
2023-04-27T10:53:04.151Z,11.04
2023-04-27T10:55:31.417Z,11.61
2023-04-27T10:57:58.306Z,11.76
2023-04-27T11:00:26.774Z,12.16
2023-04-27T11:02:54.149Z,12.79
2023-04-27T11:05:25.005Z,11.51
2023-04-27T11:07:51.931Z,11.59
2023-04-27T11:10:19.447Z,11.09
2023-04-27T11:12:46.322Z,11.90
2023-04-27T11:15:14.186Z,11.23
2023-04-27T11:17:41.542Z,11.66
2023-04-27T11:20:09.444Z,11.62
2023-04-27T11:22:46.112Z,13.00
2023-04-27T11:25:12.848Z,12.50
2023-04-27T11:27:40.370Z,12.76
2023-04-27T11:30:19.295Z,12.10
2023-04-27T11:32:45.974Z,11.85
2023-04-27T11:35:13.561Z,12.50
2023-04-27T11:37:40.148Z,12.10
2023-04-27T11:40:10.804Z,11.47
2023-04-27T11:42:37.390Z,11.81
2023-04-27T11:45:09.098Z,11.84
2023-04-27T11:47:36.934Z,11.70
2023-04-27T11:50:06.157Z,11.87
2023-04-27T11:52:34.348Z,11.68
2023-04-27T11:55:02.111Z,11.75
2023-04-27T11:57:31.975Z,11.62
2023-04-27T12:00:01.447Z,11.68
2023-04-27T12:02:29.412Z,11.35
2023-04-27T12:04:56.790Z,11.55
2023-04-27T12:07:23.518Z,11.44
2023-04-27T12:09:50.157Z,11.58
2023-04-27T12:12:22.208Z,11.93
2023-04-27T12:14:50.688Z,11.62
2023-04-27T12:17:17.533Z,11.58
2023-04-27T12:19:44.175Z,11.44
2023-04-27T12:22:11.196Z,11.62
2023-04-27T12:24:37.993Z,11.50
2023-04-27T12:27:05.154Z,11.48
2023-04-27T12:29:32.153Z,11.33
2023-04-27T12:32:00.265Z,11.11
2023-04-27T12:34:28.397Z,11.13
2023-04-27T12:36:55.110Z,11.21
2023-04-27T12:39:25.300Z,11.33
2023-04-27T12:41:52.962Z,11.66
2023-04-27T12:44:21.324Z,11.77
2023-04-27T12:46:48.413Z,12.03
2023-04-27T12:49:17.170Z,11.96
2023-04-27T12:51:45.442Z,12.16
2023-04-27T12:54:12.994Z,12.55
2023-04-27T12:56:39.886Z,12.43
2023-04-27T12:59:06.787Z,11.81
2023-04-27T13:01:33.766Z,11.33
2023-04-27T13:04:02.102Z,11.04
2023-04-27T13:06:31.253Z,11.92
2023-04-27T13:08:58.158Z,12.18
2023-04-27T13:11:25.246Z,11.92
2023-04-27T13:13:52.110Z,11.69
2023-04-27T13:16:21.666Z,11.11
2023-04-27T13:18:49.817Z,11.31
2023-04-27T13:21:18.221Z,11.38
2023-04-27T13:23:47.683Z,11.21
2023-04-27T13:26:14.624Z,11.46
2023-04-27T13:28:41.661Z,11.92
2023-04-27T13:31:08.473Z,11.44
2023-04-27T13:33:41.401Z,11.66
2023-04-27T13:36:08.462Z,11.29
2023-04-27T13:38:35.079Z,11.21
2023-04-27T13:41:03.741Z,11.18
2023-04-27T13:43:31.064Z,11.47
2023-04-27T13:46:00.290Z,11.56
2023-04-27T13:48:28.110Z,12.24
2023-04-27T13:50:55.507Z,11.43
2023-04-27T13:53:25.687Z,11.43
2023-04-27T13:55:53.039Z,11.30
2023-04-27T13:58:22.255Z,11.58
2023-04-27T14:00:52.005Z,11.70
2023-04-27T14:03:18.939Z,11.24
2023-04-27T14:05:48.247Z,11.21
2023-04-27T14:08:14.859Z,11.59
2023-04-27T14:10:41.725Z,11.82
2023-04-27T14:13:08.421Z,11.55
2023-04-27T14:15:37.383Z,11.79
2023-04-27T14:18:06.006Z,11.71
2023-04-27T14:20:33.033Z,11.90
2023-04-27T14:23:00.357Z,11.34
2023-04-27T14:25:29.649Z,11.37
2023-04-27T14:27:56.288Z,11.27
2023-04-27T14:30:25.852Z,11.38
2023-04-27T14:32:53.937Z,11.63
2023-04-27T14:35:21.069Z,11.77
2023-04-27T14:37:47.703Z,11.55
2023-04-27T14:40:14.317Z,11.91
2023-04-27T14:42:41.495Z,12.19
2023-04-27T14:45:09.265Z,12.05
2023-04-27T14:47:37.288Z,12.14
2023-04-27T14:50:06.606Z,11.96
2023-04-27T14:52:33.229Z,11.91
2023-04-27T14:55:00.734Z,12.44
2023-04-27T14:57:27.735Z,12.76
2023-04-27T14:59:54.390Z,12.49
2023-04-27T15:02:21.011Z,11.66
2023-04-27T15:04:47.702Z,11.85
2023-04-27T15:07:15.873Z,12.34
2023-04-27T15:09:42.452Z,11.84
2023-04-27T15:12:10.175Z,11.92
2023-04-27T15:14:36.771Z,12.41
2023-04-27T15:17:03.407Z,12.28
2023-04-27T15:19:29.998Z,12.40
2023-04-27T15:21:56.627Z,12.59
2023-04-27T15:24:24.650Z,12.28
2023-04-27T15:26:51.236Z,11.83
2023-04-27T15:29:17.844Z,11.73
2023-04-27T15:31:47.255Z,11.68
2023-04-27T15:34:14.000Z,11.82
2023-04-27T15:36:40.726Z,11.86
2023-04-27T15:39:10.013Z,11.91
2023-04-27T15:41:38.331Z,11.83
2023-04-27T15:44:05.521Z,11.76
2023-04-27T15:46:32.166Z,11.73
2023-04-27T15:48:58.793Z,12.09
2023-04-27T15:51:25.398Z,11.83
2023-04-27T15:53:51.961Z,11.78
2023-04-27T15:56:18.631Z,11.71
2023-04-27T15:58:46.600Z,11.74
2023-04-27T16:01:13.228Z,11.73
2023-04-27T16:03:39.937Z,11.71
2023-04-27T16:06:07.526Z,11.70
2023-04-27T16:08:34.144Z,11.72
2023-04-27T16:11:00.901Z,11.71
2023-04-27T16:13:28.510Z,11.78
2023-04-27T16:15:56.889Z,12.07
2023-04-27T16:18:23.465Z,12.10
2023-04-27T16:20:50.079Z,12.12
2023-04-27T16:23:17.123Z,12.09
2023-04-27T16:25:43.725Z,12.19
2023-04-27T16:28:10.513Z,12.40
2023-04-27T16:30:37.492Z,12.50
2023-04-27T16:33:05.681Z,12.42
2023-04-27T16:35:33.572Z,12.14
2023-04-27T16:38:00.358Z,12.16
2023-04-27T16:40:27.024Z,12.16
2023-04-27T16:42:53.647Z,12.18
2023-04-27T16:45:20.576Z,12.14
2023-04-27T16:47:47.647Z,12.22
2023-04-27T16:50:15.657Z,12.22
2023-04-27T16:52:42.348Z,12.25
2023-04-27T16:55:09.441Z,12.25
2023-04-27T16:57:36.508Z,12.23
2023-04-27T17:00:06.080Z,12.25
2023-04-27T17:02:33.121Z,12.25
2023-04-27T17:05:00.664Z,12.29
2023-04-27T17:07:32.468Z,12.25
2023-04-27T17:09:59.654Z,12.25
2023-04-27T17:12:26.373Z,12.28
2023-04-27T17:14:53.043Z,12.29
2023-04-27T17:17:19.963Z,12.33
2023-04-27T17:19:46.575Z,12.36
2023-04-27T17:22:14.766Z,12.37
2023-04-27T17:24:42.670Z,12.36
2023-04-27T17:27:09.747Z,12.36
2023-04-27T17:29:37.214Z,12.36
2023-04-27T17:32:04.695Z,12.40
2023-04-27T17:34:31.573Z,12.40
2023-04-27T17:36:58.344Z,12.42
2023-04-27T17:39:25.217Z,12.42
2023-04-27T17:41:53.223Z,12.41
2023-04-27T17:44:19.849Z,12.43
2023-04-27T17:46:46.845Z,12.44
2023-04-27T17:49:14.095Z,12.41
2023-04-27T17:51:41.402Z,12.43
2023-04-27T17:54:08.079Z,12.42
2023-04-27T17:56:34.957Z,12.38
2023-04-27T17:59:03.156Z,12.37
2023-04-27T18:01:30.118Z,12.41
2023-04-27T18:03:56.891Z,12.45
2023-04-27T18:06:23.519Z,12.41
2023-04-27T18:08:50.360Z,12.43
2023-04-27T18:11:16.941Z,12.41
2023-04-27T18:13:43.621Z,12.43
2023-04-27T18:16:11.690Z,12.45
2023-04-27T18:18:38.380Z,12.45
2023-04-27T18:21:06.632Z,12.44
2023-04-27T18:23:34.696Z,12.47
2023-04-27T18:26:01.289Z,12.45
2023-04-27T18:28:27.883Z,12.44
2023-04-27T18:30:54.467Z,12.44
2023-04-27T18:33:22.704Z,12.42
2023-04-27T18:35:50.644Z,12.38
2023-04-27T18:38:17.276Z,12.36
2023-04-27T18:40:43.942Z,12.36
2023-04-27T18:43:10.541Z,12.04
2023-04-27T18:45:37.214Z,12.27
2023-04-27T18:48:04.233Z,12.36
2023-04-27T18:50:32.255Z,12.37
2023-04-27T18:52:59.123Z,12.36
2023-04-27T18:55:26.157Z,12.35
2023-04-27T18:57:52.852Z,12.36
2023-04-27T19:00:20.011Z,12.32
2023-04-27T19:02:46.720Z,11.22
2023-04-27T19:05:15.798Z,12.07
2023-04-27T19:07:43.814Z,11.74
2023-04-27T19:10:11.969Z,12.18
2023-04-27T19:12:38.788Z,12.28
2023-04-27T19:15:06.293Z,12.29
2023-04-27T19:17:33.237Z,12.29
2023-04-27T19:19:59.989Z,12.27
2023-04-27T19:22:27.855Z,12.27
2023-04-27T19:24:56.013Z,12.22
2023-04-27T19:27:22.702Z,12.25
2023-04-27T19:29:52.097Z,12.26
2023-04-27T19:32:19.618Z,12.26
2023-04-27T19:34:46.560Z,12.21
2023-04-27T19:37:13.580Z,12.20
2023-04-27T19:39:40.250Z,9.29
2023-04-27T19:42:08.391Z,10.67
2023-04-27T19:44:35.114Z,11.85
2023-04-27T19:47:01.740Z,12.01
2023-04-27T19:49:30.962Z,12.08
2023-04-27T19:51:57.693Z,10.84
2023-04-27T19:54:24.276Z,10.42
2023-04-27T19:56:50.905Z,11.63
2023-04-27T19:59:18.855Z,11.98
2023-04-27T20:01:46.517Z,12.02
2023-04-27T20:04:13.446Z,12.03
2023-04-27T20:06:43.233Z,11.50
2023-04-27T20:09:10.064Z,11.91
2023-04-27T20:11:36.788Z,11.98
2023-04-27T20:14:03.430Z,12.00
2023-04-27T20:16:31.498Z,11.99
2023-04-27T20:18:58.132Z,12.03
2023-04-27T20:21:24.818Z,11.89
2023-04-27T20:23:51.410Z,11.91
2023-04-27T20:26:18.169Z,11.86
2023-04-27T20:28:44.745Z,11.95
2023-04-27T20:31:12.083Z,11.96
2023-04-27T20:33:40.085Z,9.74
2023-04-27T20:36:16.565Z,10.58
2023-04-27T20:38:44.355Z,11.53
2023-04-27T20:41:12.368Z,11.63
2023-04-27T20:43:39.910Z,8.97
2023-04-27T20:46:07.340Z,9.09
2023-04-27T20:48:34.146Z,10.44
2023-04-27T20:51:02.376Z,11.53
2023-04-27T20:53:29.086Z,11.45
2023-04-27T20:55:56.911Z,11.34
2023-04-27T20:58:23.767Z,11.66
2023-04-27T21:00:50.750Z,11.72
2023-04-27T21:03:17.613Z,11.75
2023-04-27T21:05:44.474Z,11.72
2023-04-27T21:08:12.432Z,11.73
2023-04-27T21:10:39.081Z,11.71
2023-04-27T21:13:05.840Z,11.72
2023-04-27T21:15:33.409Z,11.71
2023-04-27T21:18:00.628Z,11.73
2023-04-27T21:20:27.353Z,8.18
2023-04-27T21:22:54.024Z,8.58
2023-04-27T21:25:23.715Z,10.02
2023-04-27T21:27:50.680Z,11.07
2023-04-27T21:30:17.298Z,11.35
2023-04-27T21:32:44.019Z,11.44
2023-04-27T21:35:11.039Z,11.49
2023-04-27T21:37:37.705Z,11.52
2023-04-27T21:40:06.054Z,10.53
2023-04-27T21:42:34.004Z,10.21
2023-04-27T21:45:00.928Z,10.77
2023-04-27T21:47:27.626Z,10.56
2023-04-27T21:49:54.252Z,11.31
2023-04-27T21:52:21.654Z,11.46
2023-04-27T21:54:48.361Z,11.47
2023-04-27T21:57:14.985Z,11.49
2023-04-27T21:59:42.919Z,11.52
2023-04-27T22:02:09.871Z,11.49
2023-04-27T22:04:38.337Z,11.50
2023-04-27T22:07:05.475Z,9.66
2023-04-27T22:09:32.073Z,10.71
2023-04-27T22:11:58.634Z,11.26
2023-04-27T22:14:25.266Z,9.96
2023-04-27T22:16:53.163Z,7.63
2023-04-27T22:19:19.718Z,9.55
2023-04-27T22:21:46.457Z,8.66
2023-04-27T22:24:13.260Z,10.77
2023-04-27T22:26:39.932Z,10.84
2023-04-27T22:29:06.536Z,8.22
2023-04-27T22:31:33.196Z,10.84
2023-04-27T22:34:02.171Z,11.04
2023-04-27T22:36:28.891Z,11.22
2023-04-27T22:38:55.519Z,11.26
2023-04-27T22:41:22.450Z,11.29
2023-04-27T22:43:49.020Z,10.61
2023-04-27T22:46:15.901Z,11.17
2023-04-27T22:48:43.589Z,11.23
2023-04-27T22:51:11.782Z,11.27
2023-04-27T22:53:38.382Z,11.27
2023-04-27T22:56:06.038Z,11.29
2023-04-27T22:58:32.643Z,11.29
2023-04-27T23:00:59.340Z,11.31
2023-04-27T23:03:26.932Z,11.31
2023-04-27T23:05:53.612Z,11.15
2023-04-27T23:08:25.084Z,11.16
2023-04-27T23:10:53.187Z,11.24
2023-04-27T23:13:26.714Z,11.27
2023-04-27T23:15:56.374Z,11.32
2023-04-27T23:18:22.788Z,11.29
2023-04-27T23:20:52.584Z,7.39
2023-04-27T23:23:19.181Z,9.18
2023-04-27T23:25:47.389Z,9.28
2023-04-27T23:28:14.045Z,10.08
2023-04-27T23:30:40.968Z,10.87
2023-04-27T23:33:07.742Z,10.95
2023-04-27T23:35:34.342Z,11.05
2023-04-27T23:38:01.073Z,11.10
2023-04-27T23:40:27.686Z,10.47
2023-04-27T23:42:55.885Z,10.98
2023-04-27T23:45:22.538Z,11.07
2023-04-27T23:47:49.170Z,11.08
2023-04-27T23:50:15.851Z,11.13
2023-04-27T23:52:42.703Z,10.07
2023-04-27T23:55:10.262Z,8.10
2023-04-27T23:57:37.110Z,10.01
